sensor_id;sensor_type;location;lat;lon;timestamp;temperature;humidity
32809;DHT22;19159;48.178;16.386;2024-01-30T00:01:15;6.90;90.10
32809;DHT22;19159;48.178;16.386;2024-01-30T00:03:40;6.90;90.10
32809;DHT22;19159;48.178;16.386;2024-01-30T00:06:07;6.80;90.20
32809;DHT22;19159;48.178;16.386;2024-01-30T00:08:33;6.70;90.40
32809;DHT22;19159;48.178;16.386;2024-01-30T00:10:59;6.60;90.60
32809;DHT22;19159;48.178;16.386;2024-01-30T00:13:24;6.50;90.90
32809;DHT22;19159;48.178;16.386;2024-01-30T00:15:50;6.40;91.10
32809;DHT22;19159;48.178;16.386;2024-01-30T00:18:16;6.40;91.00
32809;DHT22;19159;48.178;16.386;2024-01-30T00:20:41;6.30;91.30
32809;DHT22;19159;48.178;16.386;2024-01-30T00:23:08;6.30;91.30
32809;DHT22;19159;48.178;16.386;2024-01-30T00:25:34;6.40;91.20
32809;DHT22;19159;48.178;16.386;2024-01-30T00:28:00;6.50;91.00
32809;DHT22;19159;48.178;16.386;2024-01-30T00:30:25;6.60;90.90
32809;DHT22;19159;48.178;16.386;2024-01-30T00:32:51;6.50;91.00
32809;DHT22;19159;48.178;16.386;2024-01-30T00:35:17;6.40;90.90
32809;DHT22;19159;48.178;16.386;2024-01-30T00:37:42;6.50;90.90
32809;DHT22;19159;48.178;16.386;2024-01-30T00:40:09;6.40;91.10
32809;DHT22;19159;48.178;16.386;2024-01-30T00:42:43;6.30;91.30
32809;DHT22;19159;48.178;16.386;2024-01-30T00:45:14;6.30;91.20
32809;DHT22;19159;48.178;16.386;2024-01-30T00:47:40;6.40;91.30
32809;DHT22;19159;48.178;16.386;2024-01-30T00:50:06;6.40;91.30
32809;DHT22;19159;48.178;16.386;2024-01-30T00:52:31;6.30;91.40
32809;DHT22;19159;48.178;16.386;2024-01-30T00:54:58;6.30;91.50
32809;DHT22;19159;48.178;16.386;2024-01-30T00:57:24;6.30;91.30
32809;DHT22;19159;48.178;16.386;2024-01-30T00:59:50;6.10;91.70
32809;DHT22;19159;48.178;16.386;2024-01-30T01:02:15;6.20;91.50
32809;DHT22;19159;48.178;16.386;2024-01-30T01:04:43;6.30;91.50
32809;DHT22;19159;48.178;16.386;2024-01-30T01:07:10;6.30;91.60
32809;DHT22;19159;48.178;16.386;2024-01-30T01:09:35;6.30;91.50
32809;DHT22;19159;48.178;16.386;2024-01-30T01:12:02;6.20;91.70
32809;DHT22;19159;48.178;16.386;2024-01-30T01:14:27;6.20;91.70
32809;DHT22;19159;48.178;16.386;2024-01-30T01:16:53;6.20;91.80
32809;DHT22;19159;48.178;16.386;2024-01-30T01:19:19;6.20;91.70
32809;DHT22;19159;48.178;16.386;2024-01-30T01:21:44;6.20;91.80
32809;DHT22;19159;48.178;16.386;2024-01-30T01:24:10;6.30;91.70
32809;DHT22;19159;48.178;16.386;2024-01-30T01:26:36;6.20;91.70
32809;DHT22;19159;48.178;16.386;2024-01-30T01:29:01;6.30;91.60
32809;DHT22;19159;48.178;16.386;2024-01-30T01:31:29;6.40;91.50
32809;DHT22;19159;48.178;16.386;2024-01-30T01:33:55;6.40;91.50
32809;DHT22;19159;48.178;16.386;2024-01-30T01:36:21;6.30;91.50
32809;DHT22;19159;48.178;16.386;2024-01-30T01:38:46;6.30;91.50
32809;DHT22;19159;48.178;16.386;2024-01-30T01:41:12;6.30;91.50
32809;DHT22;19159;48.178;16.386;2024-01-30T01:43:38;6.30;91.50
32809;DHT22;19159;48.178;16.386;2024-01-30T01:46:05;6.30;91.50
32809;DHT22;19159;48.178;16.386;2024-01-30T01:48:32;6.20;91.70
32809;DHT22;19159;48.178;16.386;2024-01-30T01:50:59;6.30;91.80
32809;DHT22;19159;48.178;16.386;2024-01-30T01:53:25;6.20;91.80
32809;DHT22;19159;48.178;16.386;2024-01-30T01:55:51;6.30;91.80
32809;DHT22;19159;48.178;16.386;2024-01-30T01:58:19;6.30;91.80
32809;DHT22;19159;48.178;16.386;2024-01-30T02:00:46;6.30;91.70
32809;DHT22;19159;48.178;16.386;2024-01-30T02:03:13;6.30;91.70
32809;DHT22;19159;48.178;16.386;2024-01-30T02:05:41;6.30;91.70
32809;DHT22;19159;48.178;16.386;2024-01-30T02:08:08;6.40;91.50
32809;DHT22;19159;48.178;16.386;2024-01-30T02:10:34;6.30;91.50
32809;DHT22;19159;48.178;16.386;2024-01-30T02:13:00;6.30;91.60
32809;DHT22;19159;48.178;16.386;2024-01-30T02:15:25;6.30;91.60
32809;DHT22;19159;48.178;16.386;2024-01-30T02:17:51;6.30;91.60
32809;DHT22;19159;48.178;16.386;2024-01-30T02:20:17;6.40;91.50
32809;DHT22;19159;48.178;16.386;2024-01-30T02:22:43;6.40;91.40
32809;DHT22;19159;48.178;16.386;2024-01-30T02:25:08;6.50;91.30
32809;DHT22;19159;48.178;16.386;2024-01-30T02:27:34;6.50;91.30
32809;DHT22;19159;48.178;16.386;2024-01-30T02:30:00;6.40;91.30
32809;DHT22;19159;48.178;16.386;2024-01-30T02:32:25;6.40;91.20
32809;DHT22;19159;48.178;16.386;2024-01-30T02:34:51;6.40;91.30
32809;DHT22;19159;48.178;16.386;2024-01-30T02:37:17;6.40;91.30
32809;DHT22;19159;48.178;16.386;2024-01-30T02:39:43;6.30;91.30
32809;DHT22;19159;48.178;16.386;2024-01-30T02:42:08;6.10;91.60
32809;DHT22;19159;48.178;16.386;2024-01-30T02:44:34;6.10;91.70
32809;DHT22;19159;48.178;16.386;2024-01-30T02:46:59;6.10;91.70
32809;DHT22;19159;48.178;16.386;2024-01-30T02:49:25;6.10;91.70
32809;DHT22;19159;48.178;16.386;2024-01-30T02:51:52;6.20;91.70
32809;DHT22;19159;48.178;16.386;2024-01-30T02:54:18;6.20;91.60
32809;DHT22;19159;48.178;16.386;2024-01-30T02:56:44;6.30;91.50
32809;DHT22;19159;48.178;16.386;2024-01-30T02:59:10;6.30;91.50
32809;DHT22;19159;48.178;16.386;2024-01-30T03:01:45;6.30;91.40
32809;DHT22;19159;48.178;16.386;2024-01-30T03:04:11;6.30;91.40
32809;DHT22;19159;48.178;16.386;2024-01-30T03:06:37;6.20;91.50
32809;DHT22;19159;48.178;16.386;2024-01-30T03:09:03;6.20;91.60
32809;DHT22;19159;48.178;16.386;2024-01-30T03:11:30;6.20;91.60
32809;DHT22;19159;48.178;16.386;2024-01-30T03:13:56;6.30;91.50
32809;DHT22;19159;48.178;16.386;2024-01-30T03:16:21;6.30;91.40
32809;DHT22;19159;48.178;16.386;2024-01-30T03:18:47;6.30;91.40
32809;DHT22;19159;48.178;16.386;2024-01-30T03:21:13;6.30;91.40
32809;DHT22;19159;48.178;16.386;2024-01-30T03:23:39;6.30;91.30
32809;DHT22;19159;48.178;16.386;2024-01-30T03:26:05;6.30;91.20
32809;DHT22;19159;48.178;16.386;2024-01-30T03:28:32;6.30;91.20
32809;DHT22;19159;48.178;16.386;2024-01-30T03:30:57;6.20;91.30
32809;DHT22;19159;48.178;16.386;2024-01-30T03:33:23;6.20;91.40
32809;DHT22;19159;48.178;16.386;2024-01-30T03:35:49;6.20;91.40
32809;DHT22;19159;48.178;16.386;2024-01-30T03:38:14;6.20;91.30
32809;DHT22;19159;48.178;16.386;2024-01-30T03:40:40;6.20;91.20
32809;DHT22;19159;48.178;16.386;2024-01-30T03:43:05;6.10;91.30
32809;DHT22;19159;48.178;16.386;2024-01-30T03:45:31;6.00;91.40
32809;DHT22;19159;48.178;16.386;2024-01-30T03:47:57;6.00;91.50
32809;DHT22;19159;48.178;16.386;2024-01-30T03:50:22;6.00;91.40
32809;DHT22;19159;48.178;16.386;2024-01-30T03:52:48;6.00;91.40
32809;DHT22;19159;48.178;16.386;2024-01-30T03:55:14;5.90;91.60
32809;DHT22;19159;48.178;16.386;2024-01-30T03:57:39;5.90;91.60
32809;DHT22;19159;48.178;16.386;2024-01-30T04:00:05;6.00;91.60
32809;DHT22;19159;48.178;16.386;2024-01-30T04:02:31;6.00;91.50
32809;DHT22;19159;48.178;16.386;2024-01-30T04:04:57;6.10;91.50
32809;DHT22;19159;48.178;16.386;2024-01-30T04:07:24;6.10;91.50
32809;DHT22;19159;48.178;16.386;2024-01-30T04:09:49;6.00;91.50
32809;DHT22;19159;48.178;16.386;2024-01-30T04:12:15;5.70;91.80
32809;DHT22;19159;48.178;16.386;2024-01-30T04:14:40;5.80;91.80
32809;DHT22;19159;48.178;16.386;2024-01-30T04:17:06;5.80;91.70
32809;DHT22;19159;48.178;16.386;2024-01-30T04:19:32;5.80;91.70
32809;DHT22;19159;48.178;16.386;2024-01-30T04:21:57;5.70;91.80
32809;DHT22;19159;48.178;16.386;2024-01-30T04:24:23;5.70;91.80
32809;DHT22;19159;48.178;16.386;2024-01-30T04:26:48;5.80;91.80
32809;DHT22;19159;48.178;16.386;2024-01-30T04:29:14;5.60;92.10
32809;DHT22;19159;48.178;16.386;2024-01-30T04:31:40;5.20;92.70
32809;DHT22;19159;48.178;16.386;2024-01-30T04:34:05;5.20;92.80
32809;DHT22;19159;48.178;16.386;2024-01-30T04:36:31;5.40;92.70
32809;DHT22;19159;48.178;16.386;2024-01-30T04:38:56;5.30;92.90
32809;DHT22;19159;48.178;16.386;2024-01-30T04:41:23;5.20;93.00
32809;DHT22;19159;48.178;16.386;2024-01-30T04:43:48;5.20;93.20
32809;DHT22;19159;48.178;16.386;2024-01-30T04:46:14;5.20;93.10
32809;DHT22;19159;48.178;16.386;2024-01-30T04:48:40;5.20;93.20
32809;DHT22;19159;48.178;16.386;2024-01-30T04:51:05;5.20;93.30
32809;DHT22;19159;48.178;16.386;2024-01-30T04:53:31;5.20;93.20
32809;DHT22;19159;48.178;16.386;2024-01-30T04:55:57;5.30;93.20
32809;DHT22;19159;48.178;16.386;2024-01-30T04:58:23;5.10;93.40
32809;DHT22;19159;48.178;16.386;2024-01-30T05:00:48;5.00;93.90
32809;DHT22;19159;48.178;16.386;2024-01-30T05:03:20;4.90;94.20
32809;DHT22;19159;48.178;16.386;2024-01-30T05:05:47;4.90;94.10
32809;DHT22;19159;48.178;16.386;2024-01-30T05:08:12;5.00;94.00
32809;DHT22;19159;48.178;16.386;2024-01-30T05:10:38;5.00;94.00
32809;DHT22;19159;48.178;16.386;2024-01-30T05:13:04;5.00;94.00
32809;DHT22;19159;48.178;16.386;2024-01-30T05:15:29;5.10;93.90
32809;DHT22;19159;48.178;16.386;2024-01-30T05:17:55;5.00;93.90
32809;DHT22;19159;48.178;16.386;2024-01-30T05:20:21;5.00;94.20
32809;DHT22;19159;48.178;16.386;2024-01-30T05:22:46;5.10;94.00
32809;DHT22;19159;48.178;16.386;2024-01-30T05:25:13;4.80;94.40
32809;DHT22;19159;48.178;16.386;2024-01-30T05:27:38;4.80;94.60
32809;DHT22;19159;48.178;16.386;2024-01-30T05:30:06;4.80;94.80
32809;DHT22;19159;48.178;16.386;2024-01-30T05:32:32;5.00;94.40
32809;DHT22;19159;48.178;16.386;2024-01-30T05:34:57;5.10;94.20
32809;DHT22;19159;48.178;16.386;2024-01-30T05:37:23;5.00;94.50
32809;DHT22;19159;48.178;16.386;2024-01-30T05:39:49;5.10;94.20
32809;DHT22;19159;48.178;16.386;2024-01-30T05:42:14;5.10;94.10
32809;DHT22;19159;48.178;16.386;2024-01-30T05:44:42;5.10;94.20
32809;DHT22;19159;48.178;16.386;2024-01-30T05:47:08;5.00;94.30
32809;DHT22;19159;48.178;16.386;2024-01-30T05:49:33;5.10;94.20
32809;DHT22;19159;48.178;16.386;2024-01-30T05:52:01;5.10;94.00
32809;DHT22;19159;48.178;16.386;2024-01-30T05:54:27;5.00;94.20
32809;DHT22;19159;48.178;16.386;2024-01-30T05:56:53;5.10;94.10
32809;DHT22;19159;48.178;16.386;2024-01-30T05:59:18;5.10;94.10
32809;DHT22;19159;48.178;16.386;2024-01-30T06:01:47;5.20;93.90
32809;DHT22;19159;48.178;16.386;2024-01-30T06:04:14;5.20;93.80
32809;DHT22;19159;48.178;16.386;2024-01-30T06:06:40;5.00;94.10
32809;DHT22;19159;48.178;16.386;2024-01-30T06:09:06;5.10;94.10
32809;DHT22;19159;48.178;16.386;2024-01-30T06:11:34;5.10;94.00
32809;DHT22;19159;48.178;16.386;2024-01-30T06:14:00;5.00;94.20
32809;DHT22;19159;48.178;16.386;2024-01-30T06:16:26;5.00;94.10
32809;DHT22;19159;48.178;16.386;2024-01-30T06:18:55;5.00;94.10
32809;DHT22;19159;48.178;16.386;2024-01-30T06:21:21;5.00;94.10
32809;DHT22;19159;48.178;16.386;2024-01-30T06:23:46;5.10;94.10
32809;DHT22;19159;48.178;16.386;2024-01-30T06:26:12;5.00;94.30
32809;DHT22;19159;48.178;16.386;2024-01-30T06:28:38;5.10;94.10
32809;DHT22;19159;48.178;16.386;2024-01-30T06:31:04;5.20;93.90
32809;DHT22;19159;48.178;16.386;2024-01-30T06:33:29;5.20;93.90
32809;DHT22;19159;48.178;16.386;2024-01-30T06:35:55;5.10;94.00
32809;DHT22;19159;48.178;16.386;2024-01-30T06:38:20;5.10;93.90
32809;DHT22;19159;48.178;16.386;2024-01-30T06:40:46;5.20;93.90
32809;DHT22;19159;48.178;16.386;2024-01-30T06:43:12;5.20;93.80
32809;DHT22;19159;48.178;16.386;2024-01-30T06:45:37;5.30;93.80
32809;DHT22;19159;48.178;16.386;2024-01-30T06:48:03;5.40;93.70
32809;DHT22;19159;48.178;16.386;2024-01-30T06:50:29;5.40;93.50
32809;DHT22;19159;48.178;16.386;2024-01-30T06:52:54;5.50;93.40
32809;DHT22;19159;48.178;16.386;2024-01-30T06:55:20;5.50;93.30
32809;DHT22;19159;48.178;16.386;2024-01-30T06:57:46;5.50;93.30
32809;DHT22;19159;48.178;16.386;2024-01-30T07:00:12;5.60;93.20
32809;DHT22;19159;48.178;16.386;2024-01-30T07:02:39;5.70;93.10
32809;DHT22;19159;48.178;16.386;2024-01-30T07:05:04;5.70;93.30
32809;DHT22;19159;48.178;16.386;2024-01-30T07:07:30;5.70;93.00
32809;DHT22;19159;48.178;16.386;2024-01-30T07:09:56;5.70;93.00
32809;DHT22;19159;48.178;16.386;2024-01-30T07:12:24;5.70;93.00
32809;DHT22;19159;48.178;16.386;2024-01-30T07:14:51;5.80;92.90
32809;DHT22;19159;48.178;16.386;2024-01-30T07:17:17;5.90;92.80
32809;DHT22;19159;48.178;16.386;2024-01-30T07:19:43;5.90;92.70
32809;DHT22;19159;48.178;16.386;2024-01-30T07:22:09;6.00;92.90
32809;DHT22;19159;48.178;16.386;2024-01-30T07:24:34;6.00;92.90
32809;DHT22;19159;48.178;16.386;2024-01-30T07:27:00;6.10;92.80
32809;DHT22;19159;48.178;16.386;2024-01-30T07:29:26;6.20;93.10
32809;DHT22;19159;48.178;16.386;2024-01-30T07:31:51;6.30;92.70
32809;DHT22;19159;48.178;16.386;2024-01-30T07:34:17;6.50;92.80
32809;DHT22;19159;48.178;16.386;2024-01-30T07:36:43;6.60;92.70
32809;DHT22;19159;48.178;16.386;2024-01-30T07:39:08;6.80;92.60
32809;DHT22;19159;48.178;16.386;2024-01-30T07:41:35;6.90;92.20
32809;DHT22;19159;48.178;16.386;2024-01-30T07:44:02;7.00;92.40
32809;DHT22;19159;48.178;16.386;2024-01-30T07:46:28;7.20;92.00
32809;DHT22;19159;48.178;16.386;2024-01-30T07:48:54;7.30;91.90
32809;DHT22;19159;48.178;16.386;2024-01-30T07:51:21;7.40;91.60
32809;DHT22;19159;48.178;16.386;2024-01-30T07:53:46;7.60;91.60
32809;DHT22;19159;48.178;16.386;2024-01-30T07:56:12;7.70;91.10
32809;DHT22;19159;48.178;16.386;2024-01-30T07:58:38;7.70;90.80
32809;DHT22;19159;48.178;16.386;2024-01-30T08:01:03;7.60;90.40
32809;DHT22;19159;48.178;16.386;2024-01-30T08:03:29;7.60;90.60
32809;DHT22;19159;48.178;16.386;2024-01-30T08:05:55;7.80;90.70
32809;DHT22;19159;48.178;16.386;2024-01-30T08:08:20;7.70;90.20
32809;DHT22;19159;48.178;16.386;2024-01-30T08:10:46;7.80;90.40
32809;DHT22;19159;48.178;16.386;2024-01-30T08:13:12;7.70;90.00
32809;DHT22;19159;48.178;16.386;2024-01-30T08:15:37;7.70;90.20
32809;DHT22;19159;48.178;16.386;2024-01-30T08:18:04;7.80;90.10
32809;DHT22;19159;48.178;16.386;2024-01-30T08:20:31;7.60;90.10
32809;DHT22;19159;48.178;16.386;2024-01-30T08:22:56;7.60;90.20
32809;DHT22;19159;48.178;16.386;2024-01-30T08:25:22;7.80;90.30
32809;DHT22;19159;48.178;16.386;2024-01-30T08:27:48;7.90;90.20
32809;DHT22;19159;48.178;16.386;2024-01-30T08:30:14;7.90;90.00
32809;DHT22;19159;48.178;16.386;2024-01-30T08:32:39;8.00;90.00
32809;DHT22;19159;48.178;16.386;2024-01-30T08:35:05;8.10;90.00
32809;DHT22;19159;48.178;16.386;2024-01-30T08:37:32;8.20;89.70
32809;DHT22;19159;48.178;16.386;2024-01-30T08:39:57;8.20;89.30
32809;DHT22;19159;48.178;16.386;2024-01-30T08:42:23;8.20;89.20
32809;DHT22;19159;48.178;16.386;2024-01-30T08:44:49;8.20;88.70
32809;DHT22;19159;48.178;16.386;2024-01-30T08:47:16;8.10;88.30
32809;DHT22;19159;48.178;16.386;2024-01-30T08:49:43;8.10;88.60
32809;DHT22;19159;48.178;16.386;2024-01-30T08:52:12;8.10;88.20
32809;DHT22;19159;48.178;16.386;2024-01-30T08:54:38;8.10;88.20
32809;DHT22;19159;48.178;16.386;2024-01-30T08:57:11;8.10;88.10
32809;DHT22;19159;48.178;16.386;2024-01-30T08:59:39;8.10;88.10
32809;DHT22;19159;48.178;16.386;2024-01-30T09:02:05;8.10;87.70
32809;DHT22;19159;48.178;16.386;2024-01-30T09:04:31;8.30;88.00
32809;DHT22;19159;48.178;16.386;2024-01-30T09:06:56;8.10;87.30
32809;DHT22;19159;48.178;16.386;2024-01-30T09:09:22;8.00;87.80
32809;DHT22;19159;48.178;16.386;2024-01-30T09:11:48;8.20;87.70
32809;DHT22;19159;48.178;16.386;2024-01-30T09:14:13;8.30;87.60
32809;DHT22;19159;48.178;16.386;2024-01-30T09:16:39;8.40;87.50
32809;DHT22;19159;48.178;16.386;2024-01-30T09:19:05;8.60;87.60
32809;DHT22;19159;48.178;16.386;2024-01-30T09:21:31;8.70;87.00
32809;DHT22;19159;48.178;16.386;2024-01-30T09:24:02;8.70;86.60
32809;DHT22;19159;48.178;16.386;2024-01-30T09:26:29;8.90;87.00
32809;DHT22;19159;48.178;16.386;2024-01-30T09:28:55;9.50;88.60
32809;DHT22;19159;48.178;16.386;2024-01-30T09:31:20;10.90;87.20
32809;DHT22;19159;48.178;16.386;2024-01-30T09:33:46;12.40;83.80
32809;DHT22;19159;48.178;16.386;2024-01-30T09:36:13;13.70;77.00
32809;DHT22;19159;48.178;16.386;2024-01-30T09:38:41;15.00;74.90
32809;DHT22;19159;48.178;16.386;2024-01-30T09:41:09;15.90;69.10
32809;DHT22;19159;48.178;16.386;2024-01-30T09:43:37;16.90;69.20
32809;DHT22;19159;48.178;16.386;2024-01-30T09:46:05;17.70;64.80
32809;DHT22;19159;48.178;16.386;2024-01-30T09:48:32;18.60;63.40
32809;DHT22;19159;48.178;16.386;2024-01-30T09:50:59;19.50;59.20
32809;DHT22;19159;48.178;16.386;2024-01-30T09:53:25;19.90;58.00
32809;DHT22;19159;48.178;16.386;2024-01-30T09:55:51;20.50;55.30
32809;DHT22;19159;48.178;16.386;2024-01-30T09:58:17;21.00;54.60
32809;DHT22;19159;48.178;16.386;2024-01-30T10:00:43;21.80;54.60
32809;DHT22;19159;48.178;16.386;2024-01-30T10:03:09;22.70;51.80
32809;DHT22;19159;48.178;16.386;2024-01-30T10:05:36;22.90;50.60
32809;DHT22;19159;48.178;16.386;2024-01-30T10:08:06;22.40;51.10
32809;DHT22;19159;48.178;16.386;2024-01-30T10:10:35;23.00;51.50
32809;DHT22;19159;48.178;16.386;2024-01-30T10:13:01;24.00;50.10
32809;DHT22;19159;48.178;16.386;2024-01-30T10:15:28;24.30;48.80
32809;DHT22;19159;48.178;16.386;2024-01-30T10:17:54;24.40;47.10
32809;DHT22;19159;48.178;16.386;2024-01-30T10:20:20;25.30;48.50
32809;DHT22;19159;48.178;16.386;2024-01-30T10:22:48;26.50;47.60
32809;DHT22;19159;48.178;16.386;2024-01-30T10:25:15;27.10;46.10
32809;DHT22;19159;48.178;16.386;2024-01-30T10:27:40;27.40;44.70
32809;DHT22;19159;48.178;16.386;2024-01-30T10:30:07;27.40;44.30
32809;DHT22;19159;48.178;16.386;2024-01-30T10:32:33;28.00;44.60
32809;DHT22;19159;48.178;16.386;2024-01-30T10:34:58;27.90;43.00
32809;DHT22;19159;48.178;16.386;2024-01-30T10:37:25;27.90;42.80
32809;DHT22;19159;48.178;16.386;2024-01-30T10:39:53;28.30;42.40
32809;DHT22;19159;48.178;16.386;2024-01-30T10:42:20;28.80;43.10
32809;DHT22;19159;48.178;16.386;2024-01-30T10:45:08;29.40;42.50
32809;DHT22;19159;48.178;16.386;2024-01-30T10:47:35;30.00;40.80
32809;DHT22;19159;48.178;16.386;2024-01-30T10:50:04;30.40;40.00
32809;DHT22;19159;48.178;16.386;2024-01-30T10:52:32;30.50;39.90
32809;DHT22;19159;48.178;16.386;2024-01-30T10:54:58;30.90;38.80
32809;DHT22;19159;48.178;16.386;2024-01-30T10:57:25;31.20;38.70
32809;DHT22;19159;48.178;16.386;2024-01-30T10:59:53;31.80;38.00
32809;DHT22;19159;48.178;16.386;2024-01-30T11:02:20;31.90;37.60
32809;DHT22;19159;48.178;16.386;2024-01-30T11:04:47;32.00;37.20
32809;DHT22;19159;48.178;16.386;2024-01-30T11:07:26;32.90;37.40
32809;DHT22;19159;48.178;16.386;2024-01-30T11:12:32;33.90;35.20
32809;DHT22;19159;48.178;16.386;2024-01-30T11:15:06;34.20;35.80
32809;DHT22;19159;48.178;16.386;2024-01-30T11:17:51;34.60;35.10
32809;DHT22;19159;48.178;16.386;2024-01-30T11:22:49;35.40;34.80
32809;DHT22;19159;48.178;16.386;2024-01-30T11:25:16;35.70;34.80
32809;DHT22;19159;48.178;16.386;2024-01-30T11:27:43;36.30;33.30
32809;DHT22;19159;48.178;16.386;2024-01-30T11:30:09;36.80;33.30
32809;DHT22;19159;48.178;16.386;2024-01-30T11:32:35;35.80;31.90
32809;DHT22;19159;48.178;16.386;2024-01-30T11:35:04;33.80;32.40
32809;DHT22;19159;48.178;16.386;2024-01-30T11:37:31;33.60;34.60
32809;DHT22;19159;48.178;16.386;2024-01-30T11:39:58;34.90;33.60
32809;DHT22;19159;48.178;16.386;2024-01-30T11:42:24;35.00;32.40
32809;DHT22;19159;48.178;16.386;2024-01-30T11:44:53;34.90;31.60
32809;DHT22;19159;48.178;16.386;2024-01-30T11:47:18;33.30;33.00
32809;DHT22;19159;48.178;16.386;2024-01-30T11:49:44;32.80;33.30
32809;DHT22;19159;48.178;16.386;2024-01-30T11:52:10;32.60;34.40
32809;DHT22;19159;48.178;16.386;2024-01-30T11:54:40;32.80;33.30
32809;DHT22;19159;48.178;16.386;2024-01-30T11:57:06;31.70;33.40
32809;DHT22;19159;48.178;16.386;2024-01-30T11:59:31;31.90;35.10
32809;DHT22;19159;48.178;16.386;2024-01-30T12:01:57;31.10;34.10
32809;DHT22;19159;48.178;16.386;2024-01-30T12:04:22;31.00;35.00
32809;DHT22;19159;48.178;16.386;2024-01-30T12:06:51;31.50;34.40
32809;DHT22;19159;48.178;16.386;2024-01-30T12:09:17;31.10;35.00
32809;DHT22;19159;48.178;16.386;2024-01-30T12:11:47;30.50;33.80
32809;DHT22;19159;48.178;16.386;2024-01-30T12:14:14;29.90;35.00
32809;DHT22;19159;48.178;16.386;2024-01-30T12:16:40;30.50;35.00
32809;DHT22;19159;48.178;16.386;2024-01-30T12:19:09;30.60;34.30
32809;DHT22;19159;48.178;16.386;2024-01-30T12:21:35;29.00;34.80
32809;DHT22;19159;48.178;16.386;2024-01-30T12:24:01;28.90;35.70
32809;DHT22;19159;48.178;16.386;2024-01-30T12:26:27;29.80;36.10
32809;DHT22;19159;48.178;16.386;2024-01-30T12:28:56;29.90;35.40
32809;DHT22;19159;48.178;16.386;2024-01-30T12:31:32;30.60;34.90
32809;DHT22;19159;48.178;16.386;2024-01-30T12:33:59;29.20;35.80
32809;DHT22;19159;48.178;16.386;2024-01-30T12:36:25;29.70;35.50
32809;DHT22;19159;48.178;16.386;2024-01-30T12:38:51;29.30;36.30
32809;DHT22;19159;48.178;16.386;2024-01-30T12:41:17;27.00;36.40
32809;DHT22;19159;48.178;16.386;2024-01-30T12:43:43;24.90;38.50
32809;DHT22;19159;48.178;16.386;2024-01-30T12:46:09;23.00;40.70
32809;DHT22;19159;48.178;16.386;2024-01-30T12:48:35;21.70;42.60
32809;DHT22;19159;48.178;16.386;2024-01-30T12:51:01;20.50;44.40
32809;DHT22;19159;48.178;16.386;2024-01-30T12:53:27;19.50;46.30
32809;DHT22;19159;48.178;16.386;2024-01-30T12:55:52;18.60;47.90
32809;DHT22;19159;48.178;16.386;2024-01-30T12:58:20;17.90;49.20
32809;DHT22;19159;48.178;16.386;2024-01-30T13:00:45;17.30;49.90
32809;DHT22;19159;48.178;16.386;2024-01-30T13:03:12;16.70;51.30
32809;DHT22;19159;48.178;16.386;2024-01-30T13:05:38;16.50;51.80
32809;DHT22;19159;48.178;16.386;2024-01-30T13:08:04;15.70;53.30
32809;DHT22;19159;48.178;16.386;2024-01-30T13:10:30;14.60;55.30
32809;DHT22;19159;48.178;16.386;2024-01-30T13:12:55;14.60;55.30
32809;DHT22;19159;48.178;16.386;2024-01-30T13:15:21;14.50;56.10
32809;DHT22;19159;48.178;16.386;2024-01-30T13:17:48;14.00;57.20
32809;DHT22;19159;48.178;16.386;2024-01-30T13:20:14;13.60;58.00
32809;DHT22;19159;48.178;16.386;2024-01-30T13:22:45;13.40;58.30
32809;DHT22;19159;48.178;16.386;2024-01-30T13:25:10;12.90;59.60
32809;DHT22;19159;48.178;16.386;2024-01-30T13:27:39;12.30;61.70
32809;DHT22;19159;48.178;16.386;2024-01-30T13:30:07;12.50;61.60
32809;DHT22;19159;48.178;16.386;2024-01-30T13:32:34;12.30;62.10
32809;DHT22;19159;48.178;16.386;2024-01-30T13:35:00;12.50;61.50
32809;DHT22;19159;48.178;16.386;2024-01-30T13:37:25;12.60;61.20
32809;DHT22;19159;48.178;16.386;2024-01-30T13:39:51;12.30;62.50
32809;DHT22;19159;48.178;16.386;2024-01-30T13:42:16;12.50;61.70
32809;DHT22;19159;48.178;16.386;2024-01-30T13:44:42;12.60;61.50
32809;DHT22;19159;48.178;16.386;2024-01-30T13:47:09;12.20;63.30
32809;DHT22;19159;48.178;16.386;2024-01-30T13:49:35;12.30;62.70
32809;DHT22;19159;48.178;16.386;2024-01-30T13:52:01;12.10;63.70
32809;DHT22;19159;48.178;16.386;2024-01-30T13:54:26;12.10;64.50
32809;DHT22;19159;48.178;16.386;2024-01-30T13:56:52;11.90;64.30
32809;DHT22;19159;48.178;16.386;2024-01-30T13:59:17;11.70;64.80
32809;DHT22;19159;48.178;16.386;2024-01-30T14:01:49;11.50;65.60
32809;DHT22;19159;48.178;16.386;2024-01-30T14:04:14;11.50;65.90
32809;DHT22;19159;48.178;16.386;2024-01-30T14:06:40;11.30;67.00
32809;DHT22;19159;48.178;16.386;2024-01-30T14:09:06;11.30;67.00
32809;DHT22;19159;48.178;16.386;2024-01-30T14:11:32;11.60;66.50
32809;DHT22;19159;48.178;16.386;2024-01-30T14:13:57;11.50;67.20
32809;DHT22;19159;48.178;16.386;2024-01-30T14:16:23;11.60;66.50
32809;DHT22;19159;48.178;16.386;2024-01-30T14:18:50;11.20;67.80
32809;DHT22;19159;48.178;16.386;2024-01-30T14:21:15;11.00;68.60
32809;DHT22;19159;48.178;16.386;2024-01-30T14:23:41;11.00;69.60
32809;DHT22;19159;48.178;16.386;2024-01-30T14:26:07;11.00;69.20
32809;DHT22;19159;48.178;16.386;2024-01-30T14:28:32;11.10;68.70
32809;DHT22;19159;48.178;16.386;2024-01-30T14:30:59;11.00;69.60
32809;DHT22;19159;48.178;16.386;2024-01-30T14:33:24;11.20;68.60
32809;DHT22;19159;48.178;16.386;2024-01-30T14:35:51;11.20;69.30
32809;DHT22;19159;48.178;16.386;2024-01-30T14:38:17;11.00;69.60
32809;DHT22;19159;48.178;16.386;2024-01-30T14:40:42;11.20;69.40
32809;DHT22;19159;48.178;16.386;2024-01-30T14:43:08;11.20;69.50
32809;DHT22;19159;48.178;16.386;2024-01-30T14:45:33;11.10;69.90
32809;DHT22;19159;48.178;16.386;2024-01-30T14:47:59;10.90;70.40
32809;DHT22;19159;48.178;16.386;2024-01-30T14:50:25;11.00;70.30
32809;DHT22;19159;48.178;16.386;2024-01-30T14:52:53;10.90;70.50
32809;DHT22;19159;48.178;16.386;2024-01-30T14:55:19;11.10;70.00
32809;DHT22;19159;48.178;16.386;2024-01-30T14:57:45;11.20;69.80
32809;DHT22;19159;48.178;16.386;2024-01-30T15:00:12;11.00;70.80
32809;DHT22;19159;48.178;16.386;2024-01-30T15:02:37;11.00;70.60
32809;DHT22;19159;48.178;16.386;2024-01-30T15:05:03;10.90;70.90
32809;DHT22;19159;48.178;16.386;2024-01-30T15:07:29;11.00;71.10
32809;DHT22;19159;48.178;16.386;2024-01-30T15:09:55;10.80;71.60
32809;DHT22;19159;48.178;16.386;2024-01-30T15:12:21;10.70;72.20
32809;DHT22;19159;48.178;16.386;2024-01-30T15:14:46;10.80;71.90
32809;DHT22;19159;48.178;16.386;2024-01-30T15:17:19;10.60;72.50
32809;DHT22;19159;48.178;16.386;2024-01-30T15:19:47;10.80;71.50
32809;DHT22;19159;48.178;16.386;2024-01-30T15:22:13;10.70;72.00
32809;DHT22;19159;48.178;16.386;2024-01-30T15:24:38;10.50;72.70